Time;durP1;ratioP1;P1;durP2;ratioP2;P2;SDS_P1;SDS_P2;PMS_P1;PMS_P2;Temp;Humidity;BMP_temperature;BMP_pressure;BME280_temperature;BME280_humidity;BME280_pressure;Samples;Min_cycle;Max_cycle;Signal;HPM_P1;HPM_P2
2022/11/05 00:17:24;;;;;;;40.70;32.15;;;24.20;90.40;;;;;;1833476;76;21088;-76
2022/11/05 00:19:55;;;;;;;44.05;33.25;;;24.20;90.20;;;;;;1836491;76;21146;-73
2022/11/05 00:25:18;;;;;;;43.63;32.65;;;24.30;90.10;;;;;;1838641;76;21162;-74
2022/11/05 00:27:51;;;;;;;49.88;33.33;;;24.30;90.10;;;;;;1841333;78;21185;-74
2022/11/05 00:30:30;;;;;;;42.27;32.10;;;24.40;90.00;;;;;;1840876;76;21206;-76
2022/11/05 00:33:02;;;;;;;41.55;31.82;;;24.40;90.00;;;;;;1809026;78;21178;-76
2022/11/05 00:35:33;;;;;;;39.27;31.68;;;24.40;89.70;;;;;;1834238;76;21084;-75
2022/11/05 00:38:08;;;;;;;44.13;31.20;;;24.40;89.70;;;;;;1842052;76;21545;-83
2022/11/05 00:40:38;;;;;;;39.83;29.70;;;24.50;89.50;;;;;;1842111;76;21139;-84
2022/11/05 00:45:58;;;;;;;38.67;28.73;;;24.50;88.80;;;;;;1843653;76;21543;-83
2022/11/05 00:51:17;;;;;;;32.58;26.93;;;24.70;87.60;;;;;;1842580;76;21140;-83
2022/11/05 00:53:48;;;;;;;31.07;26.57;;;24.80;87.10;;;;;;1835837;76;21177;-83
2022/11/05 00:56:19;;;;;;;31.57;26.20;;;24.90;86.00;;;;;;1842972;76;21096;-84
2022/11/05 00:58:50;;;;;;;35.95;26.00;;;25.00;84.80;;;;;;1837229;78;21131;-83
2022/11/05 01:01:21;;;;;;;34.15;26.80;;;25.00;84.10;;;;;;1841415;76;21209;-83
2022/11/05 01:03:52;;;;;;;31.95;25.95;;;25.10;83.60;;;;;;1845003;76;21191;-85
2022/11/05 01:06:24;;;;;;;30.97;25.57;;;25.10;83.20;;;;;;1841542;76;21190;-86
2022/11/05 01:08:56;;;;;;;31.97;25.40;;;25.20;83.30;;;;;;1838097;77;21092;-83
2022/11/05 01:11:32;;;;;;;35.78;26.10;;;25.30;83.00;;;;;;1839523;77;21123;-84
2022/11/05 01:14:06;;;;;;;32.20;24.77;;;25.30;82.30;;;;;;1838310;76;21209;-83
2022/11/05 01:16:38;;;;;;;32.17;24.07;;;25.30;82.00;;;;;;1842313;77;21140;-84
2022/11/05 01:19:10;;;;;;;32.95;26.40;;;25.30;81.80;;;;;;1840124;76;21151;-83
2022/11/05 01:21:41;;;;;;;31.05;26.50;;;25.40;82.00;;;;;;1841266;76;21123;-84
2022/11/05 01:24:12;;;;;;;30.48;25.25;;;25.40;81.70;;;;;;1841075;76;21166;-82
2022/11/05 01:26:43;;;;;;;32.67;24.43;;;25.40;81.10;;;;;;1842079;76;21218;-82
2022/11/05 01:29:15;;;;;;;36.28;27.75;;;25.50;81.30;;;;;;1837387;76;21708;-83
2022/11/05 01:31:47;;;;;;;36.23;25.95;;;25.50;81.50;;;;;;1840502;78;21201;-83
2022/11/05 01:34:18;;;;;;;34.03;25.27;;;25.50;80.60;;;;;;1841444;76;21137;-83
2022/11/05 01:36:49;;;;;;;34.03;25.30;;;25.60;80.50;;;;;;1781452;79;21091;-83
2022/11/05 01:39:20;;;;;;;34.92;25.55;;;25.60;80.90;;;;;;1777866;79;21156;-84
2022/11/05 01:41:53;;;;;;;29.37;24.63;;;25.60;80.50;;;;;;1841755;76;21261;-83
2022/11/05 01:44:52;;;;;;;29.50;23.38;;;25.60;80.20;;;;;;1847595;77;21092;-83
2022/11/05 01:47:41;;;;;;;31.20;24.50;;;25.70;80.00;;;;;;1844009;76;21159;-82
2022/11/05 01:50:46;;;;;;;29.77;24.45;;;25.70;80.90;;;;;;1842895;76;21128;-83
2022/11/05 01:53:40;;;;;;;29.32;23.60;;;25.70;79.80;;;;;;1852702;76;21674;-83
2022/11/05 01:56:26;;;;;;;29.05;24.77;;;25.70;79.40;;;;;;1837228;76;21159;-83
2022/11/05 01:59:06;;;;;;;33.15;24.67;;;25.80;79.50;;;;;;1829223;76;21148;-84
2022/11/05 02:01:37;;;;;;;36.48;24.63;;;25.80;79.20;;;;;;1836643;76;21651;-82
2022/11/05 02:04:16;;;;;;;30.20;23.20;;;25.90;78.70;;;;;;1832488;78;21606;-83
2022/11/05 02:06:46;;;;;;;30.95;23.27;;;25.90;78.90;;;;;;1836927;76;21148;-82
2022/11/05 02:09:23;;;;;;;29.35;22.82;;;26.00;78.50;;;;;;1835980;76;21667;-83
2022/11/05 02:11:54;;;;;;;27.10;22.87;;;26.10;77.80;;;;;;1833030;77;21191;-83
2022/11/05 02:14:25;;;;;;;27.55;23.77;;;26.10;77.50;;;;;;1830765;78;21060;-82
2022/11/05 02:17:10;;;;;;;29.37;23.22;;;26.20;77.10;;;;;;1827587;78;21092;-85
2022/11/05 02:19:59;;;;;;;29.82;22.60;;;26.20;77.20;;;;;;1831096;76;21568;-82
2022/11/05 02:22:56;;;;;;;30.17;23.57;;;26.30;77.20;;;;;;1820660;78;21086;-83
2022/11/05 02:25:35;;;;;;;27.27;22.95;;;26.30;76.90;;;;;;1834889;77;21171;-83
2022/11/05 02:28:30;;;;;;;30.43;24.60;;;26.40;76.10;;;;;;1821985;76;21141;-80
2022/11/05 02:31:06;;;;;;;27.27;22.87;;;26.50;75.50;;;;;;1762491;80;21147;-82
2022/11/05 02:33:42;;;;;;;32.30;23.47;;;26.50;76.00;;;;;;1827419;78;21120;-81
2022/11/05 02:36:33;;;;;;;33.80;23.90;;;26.50;76.10;;;;;;1823327;78;21206;-86
2022/11/05 02:39:22;;;;;;;29.37;24.82;;;26.60;76.00;;;;;;1832559;76;21127;-83
2022/11/05 02:42:05;;;;;;;25.80;23.02;;;26.70;76.00;;;;;;1819713;78;21141;-84
2022/11/05 02:44:53;;;;;;;28.47;23.27;;;26.80;76.10;;;;;;1829033;78;21235;-83
2022/11/05 02:47:47;;;;;;;34.23;24.57;;;26.80;76.10;;;;;;1831487;77;21603;-83
2022/11/05 02:50:23;;;;;;;31.12;23.40;;;26.90;75.60;;;;;;1830164;78;21119;-83
2022/11/05 02:53:12;;;;;;;26.97;23.05;;;27.00;74.60;;;;;;1824669;76;21094;-83
2022/11/05 02:55:55;;;;;;;29.52;23.32;;;27.00;74.60;;;;;;1830724;78;21151;-84
2022/11/05 02:58:29;;;;;;;31.52;24.43;;;27.10;74.30;;;;;;1827462;77;21202;-82
2022/11/05 03:01:02;;;;;;;26.25;22.73;;;27.20;75.60;;;;;;1830284;78;21124;-84
2022/11/05 03:03:37;;;;;;;30.17;24.12;;;27.20;74.20;;;;;;1830001;76;21630;-85
2022/11/05 03:06:44;;;;;;;29.92;24.82;;;27.30;74.00;;;;;;1827596;77;21130;-83
2022/11/05 03:09:23;;;;;;;30.65;23.57;;;27.40;74.20;;;;;;1830722;76;21085;-83
2022/11/05 03:12:11;;;;;;;30.90;24.02;;;27.50;73.40;;;;;;1830088;78;21089;-84
2022/11/05 03:15:14;;;;;;;32.35;23.57;;;27.60;73.20;;;;;;1821838;78;21069;-83
2022/11/05 03:18:20;;;;;;;28.85;23.42;;;27.70;73.70;;;;;;1828196;78;21136;-84
2022/11/05 03:21:00;;;;;;;;;;;27.80;73.60;;;;;;1818014;78;21163;-84
2022/11/05 03:23:49;;;;;;;26.95;23.25;;;27.90;73.20;;;;;;1837996;78;20397;-83
2022/11/05 03:26:34;;;;;;;30.70;24.00;;;28.00;72.80;;;;;;1822941;78;21127;-83
2022/11/05 03:29:08;;;;;;;32.78;25.27;;;28.10;72.80;;;;;;1835096;77;21178;-84
2022/11/05 03:31:41;;;;;;;33.73;24.55;;;28.20;72.70;;;;;;1827963;76;21226;-84
2022/11/05 03:34:14;;;;;;;31.87;24.50;;;28.20;72.70;;;;;;1786295;79;21642;-84
2022/11/05 03:36:47;;;;;;;29.80;24.37;;;28.30;72.20;;;;;;1823199;78;21177;-85
2022/11/05 03:39:21;;;;;;;33.80;24.95;;;28.30;72.00;;;;;;1829784;78;21698;-84
2022/11/05 03:41:54;;;;;;;28.45;24.12;;;28.40;72.50;;;;;;1835500;76;21195;-84
2022/11/05 03:44:30;;;;;;;30.27;23.22;;;28.50;72.60;;;;;;1818557;78;21583;-84
2022/11/05 03:47:09;;;;;;;29.42;23.83;;;28.60;72.20;;;;;;1838312;78;21178;-85
2022/11/05 03:49:42;;;;;;;37.83;24.12;;;28.70;71.80;;;;;;1833463;78;21140;-84
2022/11/05 03:52:22;;;;;;;31.12;24.07;;;28.80;71.20;;;;;;1823831;76;21190;-83
2022/11/05 03:54:53;;;;;;;28.90;22.62;;;28.90;71.10;;;;;;1826484;78;21136;-87
2022/11/05 03:57:32;;;;;;;31.48;23.42;;;29.00;70.70;;;;;;1763120;80;21157;-83
2022/11/05 04:00:09;;;;;;;26.25;22.62;;;29.10;70.50;;;;;;1827912;77;21477;-86
2022/11/05 04:02:40;;;;;;;27.45;22.98;;;29.20;68.80;;;;;;1822458;77;21120;-83
2022/11/05 04:05:11;;;;;;;27.98;22.62;;;29.30;68.90;;;;;;1828181;78;21139;-85
2022/11/05 04:13:22;;;;;;;33.55;23.38;;;29.40;68.60;;;;;;1834937;78;21181;-87
2022/11/05 04:13:26;;;;;;;27.90;22.35;;;29.50;68.40;;;;;;1832131;77;21252;-86
2022/11/05 04:18:45;;;;;;;30.32;23.07;;;29.50;67.40;;;;;;1818876;77;21140;-86
2022/11/05 04:24:08;;;;;;;31.27;22.87;;;29.70;68.30;;;;;;1828140;77;21152;-83
2022/11/05 04:26:42;;;;;;;29.57;23.05;;;29.80;67.90;;;;;;1829284;77;21087;-84
2022/11/05 04:32:02;;;;;;;29.95;20.62;;;29.90;67.30;;;;;;1837367;78;21233;-85
2022/11/05 04:34:32;;;;;;;25.77;20.45;;;30.00;66.40;;;;;;1813466;78;21261;-84
2022/11/05 04:37:03;;;;;;;31.65;19.55;;;30.10;66.00;;;;;;1832669;77;21198;-83
2022/11/05 04:39:34;;;;;;;23.35;20.08;;;30.20;64.00;;;;;;1833424;78;21164;-83
2022/11/05 04:42:06;;;;;;;23.95;21.33;;;30.20;63.80;;;;;;1821280;78;21217;-83
2022/11/05 04:44:38;;;;;;;23.42;19.37;;;30.30;64.10;;;;;;1822670;77;21220;-84
2022/11/05 04:47:09;;;;;;;22.58;19.80;;;30.30;63.40;;;;;;1828546;78;21227;-84
2022/11/05 04:49:44;;;;;;;25.57;20.12;;;30.40;62.80;;;;;;1821884;78;21615;-83
2022/11/05 04:52:16;;;;;;;23.85;19.65;;;30.40;66.10;;;;;;1828783;78;21215;-84
2022/11/05 04:54:47;;;;;;;22.75;19.85;;;30.40;62.90;;;;;;1823374;77;21259;-84
2022/11/05 04:57:18;;;;;;;24.15;18.92;;;30.50;63.20;;;;;;1824586;78;21153;-84
2022/11/05 04:59:50;;;;;;;25.32;22.00;;;30.50;62.90;;;;;;1827824;77;21108;-81
2022/11/05 05:02:22;;;;;;;26.93;20.25;;;30.50;61.70;;;;;;1828740;78;21226;-82
2022/11/05 05:04:53;;;;;;;22.35;19.73;;;30.60;63.00;;;;;;1835322;76;21127;-81
2022/11/05 05:07:24;;;;;;;23.67;19.73;;;30.70;62.40;;;;;;1827219;78;21159;-82
2022/11/05 05:09:56;;;;;;;25.37;19.23;;;30.70;62.50;;;;;;1824064;76;21230;-81
2022/11/05 05:12:27;;;;;;;21.57;19.23;;;30.70;61.60;;;;;;1835884;78;21116;-80
2022/11/05 05:14:58;;;;;;;22.50;18.95;;;30.80;61.90;;;;;;1828258;78;21100;-82
2022/11/05 05:17:29;;;;;;;20.12;17.85;;;30.80;61.60;;;;;;1834576;78;21198;-84
2022/11/05 05:22:54;;;;;;;22.00;17.35;;;30.90;60.40;;;;;;1835229;77;21194;-83
2022/11/05 05:25:26;;;;;;;21.17;16.93;;;30.90;60.20;;;;;;1823601;76;21243;-84
2022/11/05 05:28:00;;;;;;;20.65;16.20;;;30.80;60.00;;;;;;1820322;76;21232;-83
2022/11/05 05:30:30;;;;;;;24.30;17.77;;;30.80;60.20;;;;;;1833067;76;21156;-83
2022/11/05 05:33:03;;;;;;;20.05;17.52;;;30.80;60.60;;;;;;1821186;76;21505;-84
2022/11/05 05:35:34;;;;;;;20.25;17.15;;;30.80;61.20;;;;;;1790719;79;21146;-84
2022/11/05 05:38:06;;;;;;;21.42;16.50;;;30.90;60.10;;;;;;1830360;78;21108;-83
2022/11/05 05:40:40;;;;;;;20.40;15.30;;;30.90;59.70;;;;;;1832320;78;21587;-83
2022/11/05 05:43:14;;;;;;;18.95;14.98;;;30.90;59.00;;;;;;1821701;76;21159;-83
2022/11/05 05:45:46;;;;;;;19.02;14.80;;;31.00;58.90;;;;;;1822265;78;21136;-83
2022/11/05 05:48:17;;;;;;;18.12;14.35;;;31.00;58.40;;;;;;1834587;76;21108;-84
2022/11/05 05:50:51;;;;;;;17.07;14.33;;;30.80;57.90;;;;;;1833313;78;21060;-84
2022/11/05 05:53:22;;;;;;;15.98;14.38;;;30.80;59.00;;;;;;1820607;78;21068;-84
2022/11/05 05:55:54;;;;;;;16.00;14.23;;;30.70;58.90;;;;;;1792647;80;21182;-84
2022/11/05 05:58:27;;;;;;;21.35;15.00;;;30.80;58.60;;;;;;1829640;77;21650;-84
2022/11/05 06:01:06;;;;;;;20.10;15.20;;;30.90;58.10;;;;;;1828095;77;21109;-85
2022/11/05 06:03:39;;;;;;;18.98;14.83;;;30.90;57.60;;;;;;1826110;76;21666;-84
2022/11/05 06:06:12;;;;;;;18.48;14.03;;;31.10;58.60;;;;;;1836839;76;21060;-84
2022/11/05 06:08:43;;;;;;;18.10;13.62;;;31.10;57.00;;;;;;1836284;78;21148;-84
2022/11/05 06:11:14;;;;;;;17.25;13.75;;;31.20;57.40;;;;;;1836637;76;21599;-84
2022/11/05 06:13:45;;;;;;;16.35;14.10;;;31.20;58.10;;;;;;1835634;76;21132;-84
2022/11/05 06:16:18;;;;;;;18.27;14.50;;;31.30;57.70;;;;;;1836102;78;21174;-84
2022/11/05 06:18:58;;;;;;;16.20;14.50;;;31.30;58.40;;;;;;1840826;78;21705;-84
2022/11/05 06:21:29;;;;;;;19.62;14.23;;;31.40;57.00;;;;;;1836506;78;21258;-84
2022/11/05 06:24:01;;;;;;;18.15;14.60;;;31.40;57.40;;;;;;1839578;76;21197;-83
2022/11/05 06:26:32;;;;;;;17.27;15.00;;;31.30;57.40;;;;;;1837431;76;21108;-83
2022/11/05 06:29:03;;;;;;;15.28;13.75;;;31.30;58.00;;;;;;1836907;78;21169;-84
2022/11/05 06:31:34;;;;;;;18.82;14.83;;;31.40;57.10;;;;;;1826483;76;21144;-82
2022/11/05 06:34:05;;;;;;;16.27;13.93;;;31.60;56.60;;;;;;1834142;78;21152;-84
2022/11/05 06:36:36;;;;;;;17.35;14.13;;;31.60;56.90;;;;;;1838836;78;21548;-84
2022/11/05 06:39:08;;;;;;;20.48;14.05;;;31.70;56.60;;;;;;1836167;78;21817;-84
2022/11/05 06:41:39;;;;;;;20.65;14.85;;;31.70;56.90;;;;;;1836902;77;21155;-83
2022/11/05 06:44:11;;;;;;;16.17;14.43;;;31.70;57.10;;;;;;1841205;76;21127;-85
2022/11/05 06:46:42;;;;;;;16.85;14.40;;;31.70;56.50;;;;;;1836759;78;21654;-85
2022/11/05 06:49:14;;;;;;;16.73;14.20;;;31.60;56.10;;;;;;1834848;76;21166;-84
2022/11/05 06:51:45;;;;;;;18.10;14.33;;;31.60;56.80;;;;;;1832722;76;21213;-84
2022/11/05 06:54:16;;;;;;;18.15;14.63;;;31.50;57.40;;;;;;1839897;76;21116;-83
2022/11/05 06:56:47;;;;;;;17.20;14.33;;;31.50;56.80;;;;;;1829290;77;21179;-84
2022/11/05 06:59:18;;;;;;;17.42;13.93;;;31.40;56.60;;;;;;1825577;76;21138;-84
2022/11/05 07:01:49;;;;;;;18.62;14.47;;;31.40;56.30;;;;;;1830840;77;21622;-85
2022/11/05 07:04:20;;;;;;;18.12;13.78;;;31.30;56.80;;;;;;1828319;76;21190;-85
2022/11/05 07:06:59;;;;;;;18.62;14.78;;;31.20;57.10;;;;;;1825560;77;21557;-84
2022/11/05 07:09:30;;;;;;;17.52;14.40;;;31.10;57.30;;;;;;1824483;78;21075;-83
2022/11/05 07:12:01;;;;;;;18.60;14.35;;;31.10;57.20;;;;;;1825279;78;21212;-84
2022/11/05 07:14:32;;;;;;;18.20;13.60;;;31.20;56.80;;;;;;1820233;78;21634;-84
2022/11/05 07:17:03;;;;;;;15.88;14.13;;;31.20;56.90;;;;;;1827704;78;21671;-84
2022/11/05 07:19:35;;;;;;;16.82;14.03;;;31.20;57.40;;;;;;1820492;78;21631;-84
2022/11/05 07:22:06;;;;;;;17.17;13.22;;;31.20;57.50;;;;;;1828070;78;21210;-84
2022/11/05 07:24:37;;;;;;;18.32;14.63;;;31.30;56.80;;;;;;1832282;78;21180;-82
2022/11/05 07:27:08;;;;;;;17.10;14.60;;;31.20;56.40;;;;;;1829127;78;21155;-85
2022/11/05 07:29:40;;;;;;;18.67;13.98;;;31.20;57.10;;;;;;1835508;78;21144;-84
2022/11/05 07:32:12;;;;;;;20.52;14.15;;;31.10;57.30;;;;;;1829749;78;21627;-85
2022/11/05 07:34:43;;;;;;;19.57;13.60;;;31.00;57.40;;;;;;1829632;78;21899;-83
2022/11/05 07:37:15;;;;;;;17.17;14.68;;;30.90;57.60;;;;;;1829661;78;21136;-83
2022/11/05 07:39:47;;;;;;;19.82;14.80;;;30.80;57.60;;;;;;1828302;78;21820;-85
2022/11/05 07:42:18;;;;;;;21.42;15.93;;;30.80;58.10;;;;;;1836750;78;21085;-85
2022/11/05 07:44:49;;;;;;;21.80;17.87;;;30.80;58.60;;;;;;1824850;78;22461;-84
2022/11/05 07:47:20;;;;;;;21.40;16.27;;;30.80;59.20;;;;;;1822358;78;21112;-84
2022/11/05 07:49:51;;;;;;;20.92;16.17;;;30.80;59.30;;;;;;1829723;77;21400;-83
2022/11/05 07:52:21;;;;;;;16.60;14.78;;;30.90;59.70;;;;;;1817511;78;21163;-85
2022/11/05 07:54:52;;;;;;;17.77;14.33;;;30.90;59.40;;;;;;1833716;77;21159;-84
2022/11/05 07:57:23;;;;;;;18.17;13.78;;;30.90;57.80;;;;;;1825047;78;21202;-83
2022/11/05 07:59:57;;;;;;;17.98;13.62;;;30.90;57.60;;;;;;1834455;78;21616;-84
2022/11/05 08:02:28;;;;;;;16.57;14.15;;;31.00;57.30;;;;;;1828054;78;21734;-84
2022/11/05 08:05:01;;;;;;;19.73;14.55;;;31.00;57.30;;;;;;1826689;78;21708;-84
2022/11/05 08:07:33;;;;;;;15.53;13.88;;;31.00;58.20;;;;;;1840535;77;21646;-83
2022/11/05 08:10:04;;;;;;;19.82;15.15;;;30.90;58.10;;;;;;1837280;76;21159;-83
2022/11/05 08:12:38;;;;;;;19.90;15.25;;;30.90;58.90;;;;;;1840102;77;21140;-82
2022/11/05 08:15:09;;;;;;;17.57;15.63;;;30.80;58.30;;;;;;1842115;77;21120;-83
2022/11/05 08:17:40;;;;;;;15.90;13.58;;;30.80;57.40;;;;;;1839210;77;21167;-84
2022/11/05 08:20:12;;;;;;;17.35;13.68;;;30.70;56.40;;;;;;1830935;77;21631;-84
2022/11/05 08:22:47;;;;;;;20.50;14.10;;;30.70;57.20;;;;;;1822778;77;21128;-83
2022/11/05 08:25:18;;;;;;;18.90;14.75;;;30.80;57.50;;;;;;1836666;77;21156;-83
2022/11/05 08:27:50;;;;;;;14.73;13.13;;;30.70;57.50;;;;;;1838794;76;21088;-83
2022/11/05 08:30:21;;;;;;;16.87;14.10;;;30.80;57.50;;;;;;1842990;77;21138;-86
2022/11/05 08:32:54;;;;;;;17.12;14.00;;;30.80;57.50;;;;;;1829753;77;21135;-84
2022/11/05 08:35:25;;;;;;;16.45;14.30;;;30.70;57.30;;;;;;1837258;77;22096;-83
2022/11/05 08:38:01;;;;;;;15.43;13.83;;;30.70;57.10;;;;;;1843124;77;21193;-82
2022/11/05 08:40:34;;;;;;;19.90;13.93;;;30.70;56.90;;;;;;1839533;77;21559;-82
2022/11/05 08:43:07;;;;;;;17.27;14.35;;;30.70;57.30;;;;;;1822561;77;21136;-84
2022/11/05 08:45:39;;;;;;;16.02;13.53;;;30.80;57.40;;;;;;1841325;77;21194;-84
2022/11/05 08:48:15;;;;;;;19.95;15.00;;;30.80;57.10;;;;;;1802865;79;21130;-83
2022/11/05 08:50:47;;;;;;;16.20;13.60;;;30.80;57.50;;;;;;1842188;77;21674;-83
2022/11/05 08:53:18;;;;;;;17.30;14.03;;;30.70;56.70;;;;;;1826420;77;21070;-84
2022/11/05 08:56:03;;;;;;;;;;;;;;;;;;;;;
2022/11/05 08:59:08;;;;;;;16.12;13.78;;;30.80;56.40;;;;;;1738509;82;21852;-81
2022/11/05 09:01:39;;;;;;;19.12;13.68;;;30.80;56.80;;;;;;1739768;82;21190;-83
2022/11/05 09:04:10;;;;;;;18.62;14.07;;;30.70;56.70;;;;;;1747485;82;21237;-82
2022/11/05 09:06:41;;;;;;;21.15;14.38;;;30.70;57.60;;;;;;1743033;82;21272;-83
2022/11/05 09:09:12;;;;;;;16.97;13.88;;;30.60;56.90;;;;;;1735502;82;21210;-82
2022/11/05 09:11:43;;;;;;;17.90;13.70;;;30.60;56.90;;;;;;1748663;82;21198;-83
2022/11/05 09:14:16;;;;;;;15.90;13.58;;;30.60;57.10;;;;;;1727947;82;21107;-84
2022/11/05 09:16:47;;;;;;;20.95;15.75;;;30.60;56.70;;;;;;1749700;82;21198;-83
2022/11/05 09:19:30;;;;;;;16.45;14.65;;;30.60;58.80;;;;;;1733079;82;21240;-83
2022/11/05 09:22:02;;;;;;;19.50;15.23;;;30.60;59.50;;;;;;1748735;82;21197;-83
2022/11/05 09:24:33;;;;;;;19.92;15.40;;;30.60;59.50;;;;;;1703526;83;21270;-85
2022/11/05 09:27:04;;;;;;;18.50;15.60;;;30.50;59.50;;;;;;1737298;82;21316;-84
2022/11/05 09:29:35;;;;;;;18.27;15.83;;;30.50;59.70;;;;;;1738736;82;21760;-83
2022/11/05 09:32:06;;;;;;;19.48;15.10;;;30.50;59.70;;;;;;1739626;78;21166;-83
2022/11/05 09:34:37;;;;;;;18.80;15.10;;;30.40;59.70;;;;;;1841311;77;21084;-84
2022/11/05 09:37:09;;;;;;;19.77;15.20;;;30.30;59.80;;;;;;1832368;77;21610;-84
2022/11/05 09:39:40;;;;;;;19.70;15.65;;;30.30;60.00;;;;;;1845115;76;21076;-83
2022/11/05 09:42:13;;;;;;;22.32;16.23;;;30.30;60.50;;;;;;1843486;77;21159;-83
2022/11/05 09:44:49;;;;;;;22.85;16.42;;;30.20;60.50;;;;;;1836086;77;21144;-84
2022/11/05 09:47:25;;;;;;;23.75;16.10;;;30.20;60.80;;;;;;1843743;77;21111;-83
2022/11/05 09:49:58;;;;;;;17.42;15.50;;;30.10;61.10;;;;;;1844960;77;21131;-83
2022/11/05 09:52:31;;;;;;;23.07;16.17;;;30.10;61.20;;;;;;1846027;76;21140;-83
2022/11/05 09:55:05;;;;;;;22.32;16.12;;;30.10;61.40;;;;;;1811788;79;21154;-83
2022/11/05 09:57:45;;;;;;;19.20;16.35;;;30.10;61.60;;;;;;1811727;79;21201;-83
2022/11/05 10:00:17;;;;;;;20.82;16.80;;;30.00;61.70;;;;;;1766148;81;21109;-82
2022/11/05 10:02:52;;;;;;;24.55;16.17;;;30.00;61.80;;;;;;1835927;77;21068;-84
2022/11/05 10:05:24;;;;;;;20.10;16.37;;;30.00;61.70;;;;;;1805860;79;21119;-83
2022/11/05 10:07:58;;;;;;;21.27;16.75;;;30.00;61.90;;;;;;1846321;77;21166;-82
2022/11/05 10:10:38;;;;;;;20.95;16.62;;;30.00;62.30;;;;;;1848150;76;21241;-83
2022/11/05 10:13:28;;;;;;;20.55;16.50;;;30.10;62.00;;;;;;1845613;77;21065;-86
2022/11/05 10:16:04;;;;;;;18.30;15.90;;;30.10;62.10;;;;;;1850579;77;21144;-85
2022/11/05 10:18:43;;;;;;;20.37;16.97;;;30.00;62.00;;;;;;1806379;79;21154;-83
2022/11/05 10:21:19;;;;;;;22.17;16.62;;;30.00;62.00;;;;;;1788973;80;21152;-83
2022/11/05 10:23:51;;;;;;;21.48;16.62;;;30.00;62.40;;;;;;1798055;80;21145;-83
2022/11/05 10:26:26;;;;;;;20.55;17.00;;;29.90;62.50;;;;;;1776454;80;21179;-83
2022/11/05 10:28:57;;;;;;;20.45;17.77;;;29.90;62.60;;;;;;1782128;80;21105;-81
2022/11/05 10:31:30;;;;;;;26.17;17.95;;;29.90;62.90;;;;;;1797255;80;21210;-82
2022/11/05 10:34:04;;;;;;;20.48;17.75;;;29.90;63.00;;;;;;1813816;77;21130;-83
2022/11/05 10:36:38;;;;;;;22.65;17.82;;;29.80;63.00;;;;;;1795741;80;21207;-85
2022/11/05 10:39:14;;;;;;;26.85;19.27;;;29.80;63.30;;;;;;1785656;80;21174;-84
2022/11/05 10:42:03;;;;;;;25.85;18.20;;;29.70;63.30;;;;;;1785804;80;21165;-84
2022/11/05 10:44:55;;;;;;;21.02;17.70;;;29.70;63.50;;;;;;1789862;80;21196;-83
2022/11/05 10:47:55;;;;;;;23.42;17.75;;;29.70;63.50;;;;;;1762330;80;21073;-83
2022/11/05 10:50:28;;;;;;;24.12;18.95;;;29.60;63.50;;;;;;1789193;80;21599;-84
2022/11/05 10:53:01;;;;;;;25.68;18.70;;;29.60;63.10;;;;;;1788726;80;21136;-84
2022/11/05 10:55:50;;;;;;;22.80;17.70;;;29.50;63.40;;;;;;1783280;79;21231;-85
2022/11/05 10:58:24;;;;;;;22.85;18.52;;;29.50;63.60;;;;;;1780031;80;21246;-82
2022/11/05 11:00:57;;;;;;;22.27;18.15;;;29.50;63.90;;;;;;1778178;80;21156;-83
2022/11/05 11:03:50;;;;;;;25.02;18.25;;;29.40;65.00;;;;;;1801179;78;21727;-83
2022/11/05 11:06:28;;;;;;;25.65;17.98;;;29.40;64.30;;;;;;1787112;80;21178;-82
2022/11/05 11:09:04;;;;;;;22.30;17.57;;;29.40;64.30;;;;;;1779804;80;21160;-83
2022/11/05 11:11:43;;;;;;;23.60;17.57;;;29.40;64.40;;;;;;1832163;77;21230;-81
2022/11/05 11:14:16;;;;;;;22.00;18.35;;;29.40;64.50;;;;;;1833383;77;21183;-82
2022/11/05 11:17:00;;;;;;;25.25;17.85;;;29.40;64.70;;;;;;1833433;77;21195;-82
2022/11/05 11:19:40;;;;;;;25.02;19.10;;;29.40;64.90;;;;;;1833097;77;21193;-82
2022/11/05 11:22:14;;;;;;;26.93;19.23;;;29.50;65.20;;;;;;1829409;77;21163;-83
2022/11/05 11:24:48;;;;;;;26.97;18.85;;;29.40;65.20;;;;;;1833491;77;21757;-83
2022/11/05 11:27:28;;;;;;;25.37;19.37;;;29.40;64.60;;;;;;1826194;77;21209;-83
2022/11/05 11:30:01;;;;;;;22.15;19.07;;;29.40;65.50;;;;;;1836638;77;21144;-82
2022/11/05 11:32:34;;;;;;;21.93;19.27;;;29.40;65.70;;;;;;1837064;77;21127;-83
2022/11/05 11:35:07;;;;;;;25.32;19.05;;;29.40;65.80;;;;;;1834003;77;21139;-82
2022/11/05 11:37:40;;;;;;;25.57;19.17;;;29.40;66.00;;;;;;1837947;77;21167;-84
2022/11/05 11:40:14;;;;;;;23.87;19.60;;;29.30;66.10;;;;;;1828524;77;21211;-84
2022/11/05 11:42:50;;;;;;;23.07;19.70;;;29.30;66.10;;;;;;1831686;77;21136;-83
2022/11/05 11:45:45;;;;;;;25.12;20.12;;;29.30;66.10;;;;;;1806345;79;21241;-83
2022/11/05 11:48:27;;;;;;;25.48;19.27;;;29.30;66.20;;;;;;1831821;77;21131;-84
2022/11/05 11:51:00;;;;;;;23.07;17.77;;;29.20;66.30;;;;;;1840944;77;21600;-83
2022/11/05 11:53:35;;;;;;;23.05;19.40;;;29.20;67.40;;;;;;1825779;77;21595;-82
2022/11/05 11:56:21;;;;;;;25.08;18.48;;;29.20;66.50;;;;;;1836812;77;21655;-83
2022/11/05 11:58:56;;;;;;;21.52;18.25;;;29.20;66.80;;;;;;1837744;77;21582;-83
2022/11/05 12:01:51;;;;;;;28.17;19.17;;;29.10;66.80;;;;;;1833392;77;21057;-83
2022/11/05 12:04:54;;;;;;;23.07;18.80;;;29.10;67.00;;;;;;1805408;79;21142;-83
2022/11/05 12:07:30;;;;;;;25.57;18.90;;;29.10;67.10;;;;;;1834302;77;21209;-83
2022/11/05 12:10:29;;;;;;;24.45;19.20;;;29.10;67.30;;;;;;1852175;77;21127;-83
2022/11/05 12:13:24;;;;;;;22.32;19.42;;;29.10;67.50;;;;;;1843780;77;21186;-82
2022/11/05 12:15:54;;;;;;;24.18;19.23;;;29.00;67.40;;;;;;1847677;77;21182;-82
2022/11/05 12:18:33;;;;;;;26.73;18.87;;;29.00;67.70;;;;;;1853343;77;21106;-83
2022/11/05 12:21:09;;;;;;;25.02;19.75;;;29.00;67.80;;;;;;1812004;79;21165;-82
2022/11/05 12:24:02;;;;;;;25.60;19.50;;;29.00;68.00;;;;;;1794536;79;21230;-82
2022/11/05 12:26:54;;;;;;;30.37;20.10;;;29.00;68.30;;;;;;1789279;79;21128;-81
2022/11/05 12:29:40;;;;;;;25.77;21.87;;;28.90;68.40;;;;;;1843725;77;21847;-83
2022/11/05 12:32:31;;;;;;;28.38;21.90;;;28.90;68.50;;;;;;1853579;77;21131;-83
2022/11/05 12:35:14;;;;;;;27.73;21.70;;;28.90;68.90;;;;;;1832018;77;21209;-82
2022/11/05 12:38:09;;;;;;;29.45;21.52;;;28.90;69.00;;;;;;1848168;77;21268;-83
2022/11/05 12:40:45;;;;;;;27.93;21.17;;;28.90;69.20;;;;;;1840230;77;21143;-83
2022/11/05 12:43:22;;;;;;;29.40;22.17;;;28.90;69.40;;;;;;1838856;77;21120;-84
2022/11/05 12:46:27;;;;;;;30.20;22.48;;;28.90;69.60;;;;;;1850978;77;21203;-82
2022/11/05 12:49:21;;;;;;;29.87;22.55;;;28.90;69.50;;;;;;1835592;77;21155;-82
2022/11/05 12:52:03;;;;;;;29.52;22.52;;;28.90;69.70;;;;;;1841044;77;21147;-82
2022/11/05 12:55:13;;;;;;;29.12;22.17;;;28.80;69.90;;;;;;1850187;77;21127;-83
2022/11/05 12:57:49;;;;;;;32.85;23.75;;;28.80;70.10;;;;;;1849336;77;21587;-83
2022/11/05 13:00:22;;;;;;;26.70;22.55;;;28.80;71.20;;;;;;1839611;77;21150;-82
2022/11/05 13:02:56;;;;;;;28.30;22.58;;;28.70;70.40;;;;;;1847417;77;21182;-83
2022/11/05 13:05:41;;;;;;;31.35;23.02;;;28.70;70.50;;;;;;1852278;77;21099;-83
2022/11/05 13:08:30;;;;;;;29.25;23.98;;;28.70;70.80;;;;;;1851272;76;21163;-82
2022/11/05 13:11:03;;;;;;;29.25;23.57;;;28.60;70.90;;;;;;1827569;77;21523;-83
2022/11/05 13:13:42;;;;;;;31.30;23.47;;;28.70;71.00;;;;;;1839637;77;21139;-82
2022/11/05 13:16:31;;;;;;;34.30;24.18;;;28.60;71.10;;;;;;1806044;79;21148;-82
2022/11/05 13:19:13;;;;;;;30.23;24.55;;;28.60;71.20;;;;;;1839250;77;21226;-82
2022/11/05 13:21:47;;;;;;;30.90;23.02;;;28.60;71.40;;;;;;1833626;77;21128;-82
2022/11/05 13:24:20;;;;;;;31.52;22.67;;;28.60;71.50;;;;;;1803796;79;21260;-82
2022/11/05 13:27:03;;;;;;;30.80;23.07;;;28.60;71.50;;;;;;1803150;79;21142;-83
2022/11/05 13:29:45;;;;;;;29.05;23.45;;;28.50;72.40;;;;;;1807290;79;21114;-82
2022/11/05 13:32:37;;;;;;;30.37;23.52;;;28.60;71.60;;;;;;1797920;79;21210;-81
2022/11/05 13:35:10;;;;;;;31.40;22.60;;;28.50;71.60;;;;;;1801572;78;21379;-83
2022/11/05 13:40:45;;;;;;;33.05;24.90;;;28.50;72.00;;;;;;1807608;79;21249;-81
2022/11/05 13:43:38;;;;;;;34.85;24.00;;;28.40;71.80;;;;;;1782288;79;21116;-82
2022/11/05 13:46:18;;;;;;;39.58;24.55;;;28.40;72.10;;;;;;1779717;80;21163;-82
2022/11/05 13:48:54;;;;;;;32.85;23.65;;;28.40;72.10;;;;;;1778718;80;21156;-82
2022/11/05 13:51:42;;;;;;;36.08;27.30;;;28.40;72.30;;;;;;1783950;80;21144;-82
2022/11/05 13:54:32;;;;;;;32.03;24.72;;;28.30;72.90;;;;;;1838691;77;21081;-82
2022/11/05 13:57:22;;;;;;;29.85;25.48;;;28.30;73.30;;;;;;1842607;77;21088;-83